createdAt,value
2016-08-02T00:00:34.008Z,63.94
2016-08-02T00:01:18.525Z,64.00
2016-08-02T00:02:39.310Z,63.96
2016-08-02T00:03:32.457Z,63.95
2016-08-02T00:04:32.866Z,63.96
2016-08-02T00:05:28.250Z,63.98
2016-08-02T00:06:30.019Z,63.96
2016-08-02T00:07:32.721Z,63.96
2016-08-02T00:08:24.698Z,63.97
2016-08-02T00:09:30.994Z,63.96
2016-08-02T00:10:12.902Z,63.93
2016-08-02T00:11:27.383Z,63.93
2016-08-02T00:12:16.213Z,63.95
2016-08-02T00:13:38.652Z,63.95
2016-08-02T00:14:17.423Z,63.94
2016-08-02T00:15:17.615Z,63.93
2016-08-02T00:16:16.460Z,63.92
2016-08-02T00:17:30.063Z,63.92
2016-08-02T00:18:12.625Z,63.93
2016-08-02T00:19:19.412Z,63.87
2016-08-02T00:20:13.403Z,63.85
2016-08-02T00:21:37.204Z,63.83
2016-08-02T00:22:35.413Z,63.90
2016-08-02T00:24:14.471Z,63.84
2016-08-02T00:25:35.466Z,63.73
2016-08-02T00:26:45.913Z,62.87
2016-08-02T00:27:31.925Z,62.60
2016-08-02T00:28:38.414Z,62.46
2016-08-02T00:29:35.426Z,62.83
2016-08-02T00:30:29.678Z,63.42
2016-08-02T00:31:25.142Z,63.60
2016-08-02T00:32:32.899Z,63.64
2016-08-02T00:33:40.601Z,63.72
2016-08-02T00:34:34.661Z,63.72
2016-08-02T00:35:38.159Z,63.73
2016-08-02T00:36:13.638Z,63.75
2016-08-02T00:37:27.372Z,63.56
2016-08-02T00:38:31.969Z,62.74
2016-08-02T00:39:33.460Z,62.76
2016-08-02T00:40:33.396Z,63.41
2016-08-02T00:41:42.866Z,63.60
2016-08-02T00:42:44.728Z,63.66
2016-08-02T00:43:32.137Z,63.68
2016-08-02T00:44:16.905Z,63.68
2016-08-02T00:45:31.939Z,63.72
2016-08-02T00:46:37.653Z,63.77
2016-08-02T00:47:12.497Z,63.72
2016-08-02T00:48:37.908Z,62.74
2016-08-02T00:49:41.217Z,62.51
2016-08-02T00:50:43.659Z,63.42
2016-08-02T00:51:12.494Z,63.61
2016-08-02T00:52:38.788Z,62.63
2016-08-02T00:53:20.839Z,62.45
2016-08-02T00:54:34.723Z,62.35
2016-08-02T00:55:39.120Z,62.31
2016-08-02T00:56:43.180Z,62.58
2016-08-02T00:57:37.575Z,63.26
2016-08-02T00:58:35.686Z,63.56
2016-08-02T00:59:38.740Z,63.61
2016-08-02T01:00:36.444Z,63.65
2016-08-02T01:01:35.392Z,63.65
2016-08-02T01:02:32.707Z,63.67
2016-08-02T01:03:29.904Z,63.71
2016-08-02T01:04:30.267Z,63.75
2016-08-02T01:05:14.104Z,63.71
2016-08-02T01:06:51.275Z,63.73
2016-08-02T01:07:33.186Z,63.79
2016-08-02T01:08:13.913Z,63.77
2016-08-02T01:09:36.280Z,63.77
2016-08-02T01:10:29.964Z,63.75
2016-08-02T01:11:32.236Z,63.77
2016-08-02T01:12:37.347Z,62.73
2016-08-02T01:13:30.976Z,62.54
2016-08-02T01:14:12.447Z,62.45
2016-08-02T01:15:34.428Z,63.43
2016-08-02T01:16:35.841Z,63.62
2016-08-02T01:17:28.528Z,63.72
2016-08-02T01:18:42.182Z,63.67
2016-08-02T01:19:19.719Z,63.70
2016-08-02T01:20:33.727Z,63.72
2016-08-02T01:21:34.051Z,63.72
2016-08-02T01:22:47.276Z,63.74
2016-08-02T01:23:31.817Z,63.75
2016-08-02T01:24:39.299Z,63.74
2016-08-02T01:25:22.503Z,63.80
2016-08-02T01:26:33.475Z,63.79
2016-08-02T01:27:38.872Z,63.75
2016-08-02T01:28:30.368Z,63.81
2016-08-02T01:29:14.275Z,63.80
2016-08-02T01:30:14.814Z,63.80
2016-08-02T01:31:37.694Z,63.80
2016-08-02T01:32:32.855Z,63.78
2016-08-02T01:33:22.393Z,63.63
2016-08-02T01:34:31.965Z,62.71
2016-08-02T01:35:34.322Z,62.53
2016-08-02T01:36:26.442Z,62.46
2016-08-02T01:37:43.877Z,62.40
2016-08-02T01:38:36.076Z,62.32
2016-08-02T01:39:43.931Z,62.30
2016-08-02T01:40:42.379Z,62.34
2016-08-02T01:41:33.024Z,62.28
2016-08-02T01:42:39.677Z,62.27
2016-08-02T01:43:32.937Z,62.24
2016-08-02T01:44:46.124Z,62.27
2016-08-02T01:45:43.398Z,63.30
2016-08-02T01:46:20.750Z,63.50
2016-08-02T01:47:39.046Z,63.60
2016-08-02T01:48:38.898Z,63.65
2016-08-02T01:49:23.624Z,63.71
2016-08-02T01:50:31.130Z,63.73
2016-08-02T01:51:20.081Z,63.73
2016-08-02T01:52:25.492Z,63.71
2016-08-02T01:53:19.377Z,63.70
2016-08-02T01:54:29.492Z,63.71
2016-08-02T01:55:32.015Z,63.74
2016-08-02T01:56:35.481Z,63.77
2016-08-02T01:57:13.484Z,63.79
2016-08-02T01:58:36.338Z,63.77
2016-08-02T01:59:25.214Z,63.81
2016-08-02T02:00:19.352Z,63.75
2016-08-02T02:01:27.822Z,63.74
2016-08-02T02:02:18.433Z,63.74
2016-08-02T02:03:13.336Z,63.78
2016-08-02T02:04:15.701Z,63.79
2016-08-02T02:05:36.617Z,63.77
2016-08-02T02:06:32.877Z,63.82
2016-08-02T02:07:27.151Z,63.79
2016-08-02T02:08:33.231Z,63.85
2016-08-02T02:09:33.276Z,63.82
2016-08-02T02:10:14.825Z,63.83
2016-08-02T02:11:39.447Z,63.84
2016-08-02T02:12:27.067Z,63.83
2016-08-02T02:13:30.712Z,63.81
2016-08-02T02:14:26.201Z,63.84
2016-08-02T02:15:35.571Z,63.86
2016-08-02T02:16:27.646Z,63.85
2016-08-02T02:17:20.178Z,63.86
2016-08-02T02:18:31.505Z,63.88
2016-08-02T02:19:24.530Z,63.91
2016-08-02T02:20:28.372Z,63.90
2016-08-02T02:21:41.388Z,63.89
2016-08-02T02:22:28.725Z,63.91
2016-08-02T02:23:28.473Z,63.90
2016-08-02T02:24:39.063Z,63.92
2016-08-02T02:25:12.521Z,63.82
2016-08-02T02:26:20.303Z,63.90
2016-08-02T02:27:33.286Z,63.87
2016-08-02T02:28:25.915Z,63.92
2016-08-02T02:29:34.847Z,63.88
2016-08-02T02:30:39.074Z,63.92
2016-08-02T02:31:34.496Z,63.87
2016-08-02T02:32:29.794Z,63.94
2016-08-02T02:33:33.874Z,63.94
2016-08-02T02:34:34.124Z,63.97
2016-08-02T02:35:37.945Z,63.97
2016-08-02T02:36:31.564Z,63.93
2016-08-02T02:37:30.311Z,62.90
2016-08-02T02:38:27.663Z,62.68
2016-08-02T02:39:13.113Z,62.62
2016-08-02T02:40:27.888Z,62.99
2016-08-02T02:41:50.434Z,63.56
2016-08-02T02:42:33.334Z,63.76
2016-08-02T02:43:20.224Z,63.86
2016-08-02T02:44:14.692Z,63.93
2016-08-02T02:45:44.871Z,63.97
2016-08-02T02:46:14.631Z,63.99
2016-08-02T02:47:33.770Z,64.02
2016-08-02T02:48:32.555Z,64.02
2016-08-02T02:49:26.772Z,64.06
2016-08-02T02:50:33.648Z,64.03
2016-08-02T02:51:27.506Z,64.00
2016-08-02T02:52:38.604Z,64.02
2016-08-02T02:53:31.287Z,64.04
2016-08-02T02:54:34.281Z,64.16
2016-08-02T02:55:30.364Z,62.97
2016-08-02T02:56:21.256Z,62.83
2016-08-02T02:57:35.737Z,62.70
2016-08-02T02:58:32.701Z,62.78
2016-08-02T02:59:34.284Z,63.65
2016-08-02T03:00:27.958Z,63.88
2016-08-02T03:01:26.976Z,63.94
2016-08-02T03:02:32.685Z,64.02
2016-08-02T03:03:28.263Z,64.05
2016-08-02T03:04:34.392Z,64.10
2016-08-02T03:05:26.322Z,64.09
2016-08-02T03:06:30.185Z,64.11
2016-08-02T03:07:29.881Z,64.11
2016-08-02T03:08:28.980Z,64.11
2016-08-02T03:09:43.873Z,63.44
2016-08-02T03:10:38.239Z,63.96
2016-08-02T03:11:15.909Z,64.05
2016-08-02T03:12:24.459Z,64.07
2016-08-02T03:13:35.203Z,64.13
2016-08-02T03:14:32.529Z,64.12
2016-08-02T03:15:36.531Z,64.16
2016-08-02T03:16:17.124Z,64.14
2016-08-02T03:17:36.628Z,64.16
2016-08-02T03:18:32.165Z,64.19
2016-08-02T03:19:25.397Z,64.21
2016-08-02T03:20:37.398Z,64.13
2016-08-02T03:21:32.763Z,64.17
2016-08-02T03:22:30.456Z,64.20
2016-08-02T03:23:13.919Z,64.21
2016-08-02T03:25:37.588Z,63.20
2016-08-02T03:26:22.654Z,63.00
2016-08-02T03:27:38.343Z,62.88
2016-08-02T03:28:26.378Z,62.83
2016-08-02T03:29:35.382Z,62.69
2016-08-02T03:30:29.206Z,62.70
2016-08-02T03:31:39.385Z,62.77
2016-08-02T03:32:26.307Z,62.76
2016-08-02T03:33:32.815Z,62.71
2016-08-02T03:34:15.374Z,62.72
2016-08-02T03:35:26.585Z,62.78
2016-08-02T03:36:34.941Z,62.72
2016-08-02T03:37:33.600Z,62.75
2016-08-02T03:38:36.361Z,63.73
2016-08-02T03:39:41.338Z,63.95
2016-08-02T03:40:38.127Z,64.07
2016-08-02T03:41:42.123Z,64.13
2016-08-02T03:42:18.484Z,64.20
2016-08-02T03:43:41.540Z,64.24
2016-08-02T03:44:38.752Z,64.27
2016-08-02T03:45:36.557Z,64.27
2016-08-02T03:46:39.106Z,64.27
2016-08-02T03:47:51.064Z,64.11
2016-08-02T03:48:32.129Z,63.25
2016-08-02T03:49:19.693Z,63.40
2016-08-02T03:50:16.653Z,64.00
2016-08-02T03:51:37.095Z,64.12
2016-08-02T03:52:28.598Z,64.21
2016-08-02T03:53:47.902Z,64.22
2016-08-02T03:54:23.194Z,64.25
2016-08-02T03:55:39.845Z,64.30
2016-08-02T03:56:15.338Z,64.30
2016-08-02T03:57:28.475Z,64.34
2016-08-02T03:58:33.974Z,64.32
2016-08-02T03:59:39.879Z,64.32
2016-08-02T04:00:33.549Z,64.13
2016-08-02T04:01:15.067Z,63.28
2016-08-02T04:02:37.231Z,63.14
2016-08-02T04:03:27.380Z,63.04
2016-08-02T04:04:24.719Z,63.27
2016-08-02T04:05:50.532Z,63.90
2016-08-02T04:06:22.584Z,64.18
2016-08-02T04:07:12.742Z,64.25
2016-08-02T04:08:29.887Z,64.29
2016-08-02T04:09:32.601Z,64.35
2016-08-02T04:10:29.298Z,64.40
2016-08-02T04:11:32.657Z,64.39
2016-08-02T04:12:39.354Z,64.41
2016-08-02T04:13:32.349Z,64.44
2016-08-02T04:14:25.890Z,63.39
2016-08-02T04:15:33.803Z,63.18
2016-08-02T04:16:34.136Z,63.12
2016-08-02T04:17:31.708Z,63.09
2016-08-02T04:18:32.435Z,63.36
2016-08-02T04:19:34.115Z,64.07
2016-08-02T04:20:53.701Z,64.24
2016-08-02T04:21:13.992Z,64.33
2016-08-02T04:22:19.634Z,64.36
2016-08-02T04:23:14.642Z,64.23
2016-08-02T04:24:39.605Z,64.30
2016-08-02T04:25:18.166Z,64.40
2016-08-02T04:26:43.024Z,64.40
2016-08-02T04:27:32.679Z,64.48
2016-08-02T04:28:27.567Z,64.54
2016-08-02T04:29:21.548Z,64.41
2016-08-02T04:30:38.915Z,63.90
2016-08-02T04:31:44.729Z,64.40
2016-08-02T04:32:55.894Z,64.53
2016-08-02T04:33:28.829Z,64.61
2016-08-02T04:34:17.313Z,64.63
2016-08-02T04:35:26.849Z,64.66
2016-08-02T04:36:20.638Z,64.67
2016-08-02T04:37:16.142Z,64.68
2016-08-02T04:38:26.427Z,64.68
2016-08-02T04:39:30.338Z,64.72
2016-08-02T04:40:39.156Z,64.73
2016-08-02T04:41:28.198Z,64.71
2016-08-02T04:42:34.223Z,64.76
2016-08-02T04:43:45.575Z,64.77
2016-08-02T04:44:34.507Z,64.78
2016-08-02T04:45:23.484Z,64.77
2016-08-02T04:46:33.205Z,64.76
2016-08-02T04:47:32.621Z,64.77
2016-08-02T04:48:38.167Z,64.81
2016-08-02T04:49:38.558Z,64.79
2016-08-02T04:50:33.965Z,64.80
2016-08-02T04:51:32.567Z,64.82
2016-08-02T04:52:33.514Z,64.81
2016-08-02T04:53:24.679Z,64.83
2016-08-02T04:55:33.456Z,64.83
2016-08-02T04:56:38.179Z,64.82
2016-08-02T04:57:32.253Z,64.82
2016-08-02T04:58:35.599Z,64.82
2016-08-02T04:59:28.475Z,64.82
2016-08-02T05:00:37.507Z,64.83
2016-08-02T05:01:33.441Z,64.82
2016-08-02T05:02:31.954Z,64.82
2016-08-02T05:03:25.910Z,64.83
2016-08-02T05:04:25.587Z,64.83
2016-08-02T05:05:34.120Z,64.86
2016-08-02T05:06:37.719Z,64.87
2016-08-02T05:07:37.975Z,64.86
2016-08-02T05:08:31.718Z,64.87
2016-08-02T05:10:40.023Z,64.87
2016-08-02T05:11:22.727Z,64.86
2016-08-02T05:12:25.398Z,64.87
2016-08-02T05:13:32.754Z,64.87
2016-08-02T05:14:32.515Z,64.89
2016-08-02T05:15:39.746Z,64.90
2016-08-02T05:16:26.589Z,64.91
2016-08-02T05:17:39.367Z,64.94
2016-08-02T05:18:13.549Z,64.92
2016-08-02T05:19:13.647Z,64.96
2016-08-02T05:20:37.440Z,63.89
2016-08-02T05:21:39.753Z,63.63
2016-08-02T05:22:37.194Z,63.91
2016-08-02T05:23:22.064Z,64.55
2016-08-02T05:24:41.011Z,64.75
2016-08-02T05:25:33.786Z,64.84
2016-08-02T05:26:44.124Z,64.84
2016-08-02T05:27:28.657Z,64.88
2016-08-02T05:28:15.550Z,64.90
2016-08-02T05:29:41.673Z,64.94
2016-08-02T05:30:47.196Z,65.00
2016-08-02T05:31:42.402Z,64.98
2016-08-02T05:32:37.420Z,64.98
2016-08-02T05:33:46.096Z,64.96
2016-08-02T05:34:36.732Z,64.94
2016-08-02T05:35:40.075Z,64.96
2016-08-02T05:36:32.794Z,64.89
2016-08-02T05:37:30.093Z,65.05
2016-08-02T05:38:22.115Z,65.11
2016-08-02T05:40:38.565Z,65.13
2016-08-02T05:41:33.770Z,65.01
2016-08-02T05:42:29.652Z,65.09
2016-08-02T05:43:36.992Z,65.12
2016-08-02T05:44:32.995Z,65.04
2016-08-02T05:45:39.161Z,65.13
2016-08-02T05:46:26.371Z,64.95
2016-08-02T05:47:34.862Z,65.19
2016-08-02T05:48:31.370Z,65.18
2016-08-02T05:49:33.927Z,65.13
2016-08-02T05:50:32.332Z,65.08
2016-08-02T05:51:32.491Z,65.21
2016-08-02T05:52:25.251Z,65.19
2016-08-02T05:53:51.606Z,65.29
2016-08-02T05:54:42.205Z,65.24
2016-08-02T05:55:15.575Z,65.04
2016-08-02T05:56:32.515Z,65.18
2016-08-02T05:57:26.043Z,65.17
2016-08-02T05:58:34.047Z,65.16
2016-08-02T05:59:40.231Z,65.04
2016-08-02T06:00:29.892Z,65.21
2016-08-02T06:01:28.896Z,65.25
2016-08-02T06:02:39.515Z,65.19
2016-08-02T06:03:30.571Z,65.18
2016-08-02T06:04:43.589Z,65.21
2016-08-02T06:05:33.291Z,65.21
2016-08-02T06:06:13.124Z,65.26
2016-08-02T06:07:32.132Z,65.22
2016-08-02T06:08:34.861Z,65.14
2016-08-02T06:10:15.160Z,64.61
2016-08-02T06:11:33.314Z,64.81
2016-08-02T06:12:34.566Z,64.46
2016-08-02T06:13:27.340Z,64.47
2016-08-02T06:14:22.120Z,64.88
2016-08-02T06:15:32.850Z,65.30
2016-08-02T06:16:32.987Z,65.32
2016-08-02T06:17:22.048Z,65.32
2016-08-02T06:18:22.044Z,65.41
2016-08-02T06:19:34.795Z,65.35
2016-08-02T06:20:31.373Z,65.16
2016-08-02T06:21:13.589Z,65.39
2016-08-02T06:22:44.727Z,65.22
2016-08-02T06:23:14.940Z,65.32
2016-08-02T06:24:19.931Z,65.52
2016-08-02T06:25:34.641Z,65.56
2016-08-02T06:26:24.560Z,65.55
2016-08-02T06:27:37.942Z,65.61
2016-08-02T06:28:21.496Z,65.63
2016-08-02T06:29:26.486Z,65.61
2016-08-02T06:30:40.431Z,65.60
2016-08-02T06:31:37.320Z,65.61
2016-08-02T06:32:24.053Z,65.63
2016-08-02T06:33:34.801Z,65.56
2016-08-02T06:34:44.858Z,65.60
2016-08-02T06:35:25.355Z,65.59
2016-08-02T06:36:33.080Z,65.39
2016-08-02T06:37:34.990Z,65.41
2016-08-02T06:38:42.527Z,65.13
2016-08-02T06:39:49.056Z,62.93
2016-08-02T06:40:36.912Z,60.80
2016-08-02T06:41:39.403Z,59.74
2016-08-02T06:42:38.532Z,60.50
2016-08-02T06:43:36.703Z,58.99
2016-08-02T06:44:39.332Z,58.74
2016-08-02T06:45:16.923Z,58.65
2016-08-02T06:46:44.162Z,58.71
2016-08-02T06:47:15.584Z,58.94
2016-08-02T06:48:40.045Z,59.85
2016-08-02T06:49:33.872Z,59.38
2016-08-02T06:50:42.406Z,58.94
2016-08-02T06:51:39.434Z,59.74
2016-08-02T06:52:36.737Z,59.75
2016-08-02T06:53:49.437Z,59.73
2016-08-02T06:54:40.451Z,59.78
2016-08-02T06:55:17.206Z,59.60
2016-08-02T06:56:27.231Z,59.71
2016-08-02T06:57:37.764Z,59.52
2016-08-02T06:58:44.333Z,59.70
2016-08-02T06:59:37.105Z,59.55
2016-08-02T07:00:15.552Z,59.48
2016-08-02T07:01:28.420Z,59.37
2016-08-02T07:02:34.000Z,59.21
2016-08-02T07:03:40.891Z,59.40
2016-08-02T07:04:39.663Z,59.35
2016-08-02T07:05:40.664Z,60.31
2016-08-02T07:06:50.006Z,60.30
2016-08-02T07:07:54.958Z,59.99
2016-08-02T07:08:35.609Z,59.82
2016-08-02T07:09:24.649Z,60.62
2016-08-02T07:10:17.232Z,60.86
2016-08-02T07:11:22.119Z,60.84
2016-08-02T07:12:41.318Z,60.32
2016-08-02T07:13:21.360Z,59.12
2016-08-02T07:14:23.818Z,59.94
2016-08-02T07:15:38.306Z,60.21
2016-08-02T07:16:43.566Z,60.58
2016-08-02T07:17:23.213Z,59.53
2016-08-02T07:18:43.396Z,59.26
2016-08-02T07:19:37.811Z,58.93
2016-08-02T07:20:21.033Z,58.86
2016-08-02T07:21:43.554Z,59.10
2016-08-02T07:22:53.837Z,58.92
2016-08-02T07:23:36.762Z,58.58
2016-08-02T07:24:25.685Z,58.48
2016-08-02T07:25:41.635Z,58.29
2016-08-02T07:26:52.708Z,58.25
2016-08-02T07:27:26.272Z,58.26
2016-08-02T07:28:34.566Z,58.23
2016-08-02T07:29:27.057Z,58.60
2016-08-02T07:30:42.554Z,58.26
2016-08-02T07:31:34.207Z,58.09
2016-08-02T07:32:39.533Z,58.22
2016-08-02T07:33:38.203Z,58.54
2016-08-02T07:34:37.105Z,58.51
2016-08-02T07:35:14.065Z,59.04
2016-08-02T07:36:48.543Z,59.06
2016-08-02T07:37:51.354Z,59.45
2016-08-02T07:38:44.318Z,59.66
2016-08-02T07:39:15.201Z,60.12
2016-08-02T07:40:50.803Z,60.45
2016-08-02T07:41:33.155Z,60.07
2016-08-02T07:42:35.160Z,60.00
2016-08-02T07:44:19.844Z,60.16
2016-08-02T07:44:52.991Z,60.87
2016-08-02T07:45:39.072Z,61.04
2016-08-02T07:46:32.958Z,60.48
2016-08-02T07:47:34.288Z,60.51
2016-08-02T07:48:38.431Z,60.77
2016-08-02T07:49:37.707Z,60.96
2016-08-02T07:50:32.203Z,61.04
2016-08-02T07:51:31.045Z,60.61
2016-08-02T07:52:37.321Z,60.50
2016-08-02T07:53:44.506Z,60.53
2016-08-02T07:54:31.405Z,59.75
2016-08-02T07:55:41.689Z,60.88
2016-08-02T07:56:33.104Z,60.97
2016-08-02T07:57:37.656Z,61.09
2016-08-02T07:58:26.694Z,60.92
2016-08-02T07:59:37.951Z,60.97
2016-08-02T08:00:41.385Z,61.10
2016-08-02T08:01:33.170Z,60.97
2016-08-02T08:02:33.285Z,61.23
2016-08-02T08:03:49.293Z,61.15
2016-08-02T08:04:37.931Z,61.25
2016-08-02T08:05:29.234Z,61.35
2016-08-02T08:06:38.332Z,61.35
2016-08-02T08:07:43.667Z,61.31
2016-08-02T08:08:14.226Z,61.32
2016-08-02T08:09:37.392Z,61.53
2016-08-02T08:10:39.162Z,61.48
2016-08-02T08:11:37.228Z,61.53
2016-08-02T08:12:35.708Z,61.60
2016-08-02T08:13:45.161Z,61.54
2016-08-02T08:14:38.920Z,61.50
2016-08-02T08:15:12.622Z,61.54
2016-08-02T08:16:13.712Z,61.43
2016-08-02T08:17:51.718Z,60.57
2016-08-02T08:18:25.828Z,60.41
2016-08-02T08:19:19.294Z,60.63
2016-08-02T08:20:34.605Z,61.32
2016-08-02T08:21:33.529Z,61.55
2016-08-02T08:22:14.625Z,61.67
2016-08-02T08:23:46.193Z,61.63
2016-08-02T08:24:35.382Z,61.64
2016-08-02T08:25:37.105Z,61.73
2016-08-02T08:26:39.321Z,61.79
2016-08-02T08:27:42.876Z,61.84
2016-08-02T08:28:39.266Z,61.46
2016-08-02T08:29:39.935Z,61.58
2016-08-02T08:30:39.710Z,61.68
2016-08-02T08:31:33.593Z,61.82
2016-08-02T08:32:29.277Z,61.66
2016-08-02T08:33:28.958Z,61.65
2016-08-02T08:34:33.354Z,61.77
2016-08-02T08:35:19.404Z,61.77
2016-08-02T08:36:41.412Z,61.83
2016-08-02T08:37:30.687Z,61.81
2016-08-02T08:38:36.261Z,61.89
2016-08-02T08:39:12.771Z,61.90
2016-08-02T08:40:34.656Z,61.93
2016-08-02T08:41:34.816Z,62.00
2016-08-02T08:42:45.559Z,62.04
2016-08-02T08:43:50.004Z,62.01
2016-08-02T08:44:54.476Z,62.01
2016-08-02T08:45:12.583Z,62.04
2016-08-02T08:46:51.826Z,62.01
2016-08-02T08:47:14.435Z,62.03
2016-08-02T08:48:13.693Z,62.07
2016-08-02T08:49:43.795Z,62.12
2016-08-02T08:50:34.492Z,62.08
2016-08-02T08:51:15.054Z,62.10
2016-08-02T08:52:26.884Z,62.07
2016-08-02T08:53:38.688Z,62.09
2016-08-02T08:54:36.386Z,62.13
2016-08-02T08:55:14.995Z,62.12
2016-08-02T08:56:38.938Z,62.15
2016-08-02T08:57:33.772Z,62.17
2016-08-02T08:58:46.932Z,62.18
2016-08-02T08:59:13.544Z,62.05
2016-08-02T09:00:31.356Z,61.23
2016-08-02T09:01:33.789Z,61.03
2016-08-02T09:02:19.804Z,61.27
2016-08-02T09:03:44.832Z,61.89
2016-08-02T09:04:41.189Z,62.05
2016-08-02T09:05:41.602Z,62.15
2016-08-02T09:06:39.233Z,62.22
2016-08-02T09:07:32.918Z,62.24
2016-08-02T09:08:21.760Z,62.26
2016-08-02T09:09:13.503Z,62.28
2016-08-02T09:10:35.303Z,62.30
2016-08-02T09:11:38.020Z,62.31
2016-08-02T09:12:47.477Z,62.32
2016-08-02T09:13:20.231Z,62.31
2016-08-02T09:14:20.241Z,62.32
2016-08-02T09:15:30.389Z,62.36
2016-08-02T09:16:33.040Z,62.38
2016-08-02T09:17:54.819Z,62.40
2016-08-02T09:18:50.974Z,62.40
2016-08-02T09:19:44.462Z,62.39
2016-08-02T09:20:14.241Z,62.42
2016-08-02T09:21:34.569Z,62.43
2016-08-02T09:22:38.197Z,62.45
2016-08-02T09:23:45.012Z,62.43
2016-08-02T09:24:33.770Z,62.47
2016-08-02T09:25:43.926Z,62.47
2016-08-02T09:26:14.585Z,62.47
2016-08-02T09:27:52.416Z,62.49
2016-08-02T09:28:31.651Z,62.50
2016-08-02T09:29:18.729Z,62.50
2016-08-02T09:30:12.885Z,62.50
2016-08-02T09:31:51.048Z,62.50
2016-08-02T09:32:20.233Z,62.51
2016-08-02T09:33:33.700Z,61.49
2016-08-02T09:34:41.836Z,62.30
2016-08-02T09:35:36.080Z,62.42
2016-08-02T09:36:43.985Z,62.46
2016-08-02T09:37:44.248Z,62.52
2016-08-02T09:38:48.915Z,62.54
2016-08-02T09:39:36.027Z,62.55
2016-08-02T09:40:39.803Z,62.57
2016-08-02T09:41:40.489Z,62.58
2016-08-02T09:42:32.481Z,62.59
2016-08-02T09:43:28.725Z,62.61
2016-08-02T09:44:34.389Z,62.47
2016-08-02T09:45:27.583Z,61.63
2016-08-02T09:46:33.163Z,61.42
2016-08-02T09:47:35.458Z,61.32
2016-08-02T09:48:19.059Z,61.25
2016-08-02T09:49:38.431Z,61.23
2016-08-02T09:50:40.237Z,61.21
2016-08-02T09:51:31.894Z,62.15
2016-08-02T09:52:44.392Z,62.39
2016-08-02T09:53:33.131Z,62.47
2016-08-02T09:54:45.121Z,62.50
2016-08-02T09:56:36.360Z,62.55
2016-08-02T09:57:30.094Z,62.57
2016-08-02T09:58:44.425Z,62.57
2016-08-02T09:59:43.031Z,62.58
2016-08-02T10:00:45.472Z,62.59
2016-08-02T10:01:53.836Z,62.61
2016-08-02T10:02:35.571Z,62.61
2016-08-02T10:03:39.146Z,61.62
2016-08-02T10:04:36.057Z,61.75
2016-08-02T10:05:42.185Z,62.33
2016-08-02T10:06:24.570Z,62.50
2016-08-02T10:07:29.067Z,62.56
2016-08-02T10:08:44.643Z,62.62
2016-08-02T10:09:12.846Z,62.72
2016-08-02T10:10:35.858Z,61.92
2016-08-02T10:11:38.455Z,62.46
2016-08-02T10:12:36.877Z,62.59
2016-08-02T10:13:30.875Z,62.64
2016-08-02T10:14:31.439Z,62.70
2016-08-02T10:15:15.040Z,62.71
2016-08-02T10:16:12.767Z,62.73
2016-08-02T10:17:21.275Z,62.74
2016-08-02T10:18:41.131Z,62.75
2016-08-02T10:19:11.525Z,62.75
2016-08-02T10:20:42.632Z,62.12
2016-08-02T10:21:21.705Z,62.59
2016-08-02T10:22:38.042Z,62.67
2016-08-02T10:23:30.927Z,62.74
2016-08-02T10:24:50.440Z,62.74
2016-08-02T10:25:43.797Z,62.72
2016-08-02T10:26:44.462Z,62.74
2016-08-02T10:27:38.396Z,62.72
2016-08-02T10:28:24.083Z,62.73
2016-08-02T10:29:11.593Z,62.76
2016-08-02T10:30:21.440Z,62.73
2016-08-02T10:31:41.850Z,62.74
2016-08-02T10:32:32.015Z,62.75
2016-08-02T10:33:21.553Z,62.74
2016-08-02T10:34:20.641Z,62.74
2016-08-02T10:35:38.775Z,62.76
2016-08-02T10:36:36.367Z,62.74
2016-08-02T10:37:36.639Z,62.74
2016-08-02T10:38:36.720Z,62.75
2016-08-02T10:39:29.422Z,62.76
2016-08-02T10:40:37.143Z,62.77
2016-08-02T10:41:37.004Z,62.77
2016-08-02T10:42:39.020Z,62.79
2016-08-02T10:43:39.632Z,62.78
2016-08-02T10:44:44.160Z,62.76
2016-08-02T10:45:15.261Z,62.78
2016-08-02T10:46:31.160Z,62.76
2016-08-02T10:47:12.819Z,62.76
2016-08-02T10:48:14.935Z,62.77
2016-08-02T10:49:27.928Z,62.78
2016-08-02T10:50:39.462Z,62.77
2016-08-02T10:51:37.914Z,62.77
2016-08-02T10:52:12.703Z,62.78
2016-08-02T10:53:33.223Z,62.77
2016-08-02T10:54:27.519Z,62.77
2016-08-02T10:56:22.179Z,62.78
2016-08-02T10:57:30.656Z,62.79
2016-08-02T10:58:39.029Z,62.79
2016-08-02T10:59:22.169Z,62.78
2016-08-02T11:00:36.044Z,62.80
2016-08-02T11:01:36.482Z,62.79
2016-08-02T11:02:25.913Z,62.81
2016-08-02T11:03:26.837Z,62.80
2016-08-02T11:04:20.669Z,62.80
2016-08-02T11:05:13.762Z,62.14
2016-08-02T11:06:43.789Z,62.60
2016-08-02T11:07:49.294Z,62.71
2016-08-02T11:08:16.682Z,62.77
2016-08-02T11:09:34.566Z,62.78
2016-08-02T11:10:14.459Z,62.80
2016-08-02T11:11:15.346Z,62.80
2016-08-02T11:12:40.501Z,62.80
2016-08-02T11:13:44.164Z,62.79
2016-08-02T11:14:39.458Z,62.79
2016-08-02T11:15:39.130Z,62.80
2016-08-02T11:16:40.201Z,62.78
2016-08-02T11:17:37.765Z,62.79
2016-08-02T11:18:34.167Z,62.80
2016-08-02T11:19:41.652Z,62.80
2016-08-02T11:20:38.330Z,62.79
2016-08-02T11:21:27.597Z,62.80
2016-08-02T11:22:34.032Z,62.79
2016-08-02T11:23:45.308Z,62.78
2016-08-02T11:24:17.837Z,62.78
2016-08-02T11:26:27.362Z,62.81
2016-08-02T11:27:13.821Z,62.77
2016-08-02T11:28:46.065Z,62.78
2016-08-02T11:29:14.422Z,62.81
2016-08-02T11:30:34.484Z,62.80
2016-08-02T11:31:39.763Z,62.80
2016-08-02T11:32:45.193Z,62.80
2016-08-02T11:33:31.711Z,62.78
2016-08-02T11:34:21.590Z,62.79
2016-08-02T11:35:35.250Z,62.81
2016-08-02T11:36:38.388Z,62.81
2016-08-02T11:37:43.725Z,62.82
2016-08-02T11:38:37.893Z,62.84
2016-08-02T11:39:45.051Z,62.81
2016-08-02T11:41:38.394Z,62.82
2016-08-02T11:42:26.788Z,62.80
2016-08-02T11:44:00.772Z,62.82
2016-08-02T11:44:15.021Z,62.81
2016-08-02T11:45:38.908Z,62.80
2016-08-02T11:46:39.140Z,62.80
2016-08-02T11:47:34.525Z,62.80
2016-08-02T11:48:13.643Z,62.80
2016-08-02T11:49:39.589Z,62.81
2016-08-02T11:50:39.901Z,62.81
2016-08-02T11:51:32.273Z,62.83
2016-08-02T11:52:35.464Z,62.83
2016-08-02T11:53:36.470Z,62.82
2016-08-02T11:54:29.777Z,62.81
2016-08-02T11:55:29.462Z,62.83
2016-08-02T11:56:40.301Z,62.84
2016-08-02T11:57:38.033Z,62.86
2016-08-02T11:58:13.678Z,62.84
2016-08-02T11:59:33.579Z,62.86
2016-08-02T12:00:30.903Z,62.88
2016-08-02T12:01:50.146Z,62.87
2016-08-02T12:02:37.540Z,62.89
2016-08-02T12:03:25.829Z,62.89
2016-08-02T12:04:31.930Z,62.91
2016-08-02T12:05:40.200Z,62.92
2016-08-02T12:06:39.299Z,62.91
2016-08-02T12:07:37.527Z,62.92
2016-08-02T12:08:32.072Z,61.91
2016-08-02T12:09:42.007Z,61.71
2016-08-02T12:10:39.092Z,61.59
2016-08-02T12:11:24.277Z,61.52
2016-08-02T12:12:33.995Z,61.46
2016-08-02T12:13:52.928Z,61.42
2016-08-02T12:14:32.301Z,61.76
2016-08-02T12:15:40.328Z,62.33
2016-08-02T12:16:39.467Z,62.55
2016-08-02T12:17:44.038Z,62.67
2016-08-02T12:18:27.149Z,62.65
2016-08-02T12:19:37.505Z,62.67
2016-08-02T12:20:37.405Z,62.72
2016-08-02T12:21:45.995Z,62.73
2016-08-02T12:22:31.520Z,62.63
2016-08-02T12:23:38.218Z,62.65
2016-08-02T12:24:19.885Z,62.28
2016-08-02T12:25:20.157Z,62.60
2016-08-02T12:26:17.022Z,62.67
2016-08-02T12:27:17.556Z,62.70
2016-08-02T12:28:16.231Z,62.75
2016-08-02T12:29:18.318Z,62.73
2016-08-02T12:30:16.312Z,62.63
2016-08-02T12:31:18.464Z,62.58
2016-08-02T12:32:21.223Z,62.49
2016-08-02T12:33:17.502Z,62.45
2016-08-02T12:34:25.015Z,62.51
2016-08-02T12:35:17.493Z,62.20
2016-08-02T12:36:17.348Z,62.50
2016-08-02T12:37:15.788Z,62.38
2016-08-02T12:38:18.746Z,62.50
2016-08-02T12:39:20.044Z,62.38
2016-08-02T12:40:19.100Z,62.43
2016-08-02T12:41:17.659Z,62.18
2016-08-02T12:42:16.568Z,62.41
2016-08-02T12:43:19.214Z,62.23
2016-08-02T12:44:18.435Z,62.01
2016-08-02T12:45:17.418Z,61.73
2016-08-02T12:46:15.885Z,62.22
2016-08-02T12:47:18.422Z,61.91
2016-08-02T12:48:17.128Z,61.86
2016-08-02T12:49:15.578Z,61.83
2016-08-02T12:50:16.998Z,61.72
2016-08-02T12:51:16.487Z,61.92
2016-08-02T12:52:18.268Z,61.40
2016-08-02T12:53:16.599Z,61.30
2016-08-02T12:54:17.327Z,61.43
2016-08-02T12:55:17.435Z,61.27
2016-08-02T12:56:19.496Z,60.69
2016-08-02T12:57:24.147Z,60.80
2016-08-02T12:58:25.258Z,60.86
2016-08-02T12:59:16.531Z,61.25
2016-08-02T13:00:18.437Z,61.60
2016-08-02T13:01:17.123Z,61.35
2016-08-02T13:02:14.838Z,61.32